Japan Airlines Virtual Airport Information Service

Shanghai Pudong International Airport

ICAO: ZSPD Country: China
Latitude: 31.1434 Longitude: 121.805
Latest Arrival : CES762 (RJFK-ZSPD) Latest Departure : UAE9889 (ZSPD-VABB)


WX CaptureLIVE
Data provided by noaa.gov | Fetched at 08:06:04

METAR : ZSPD 090730Z 07002MPS 010V120 9999 SCT016 28/25 Q0998 NOSIG

TAF : ZSPD 090315Z 0906/1006 05005MPS 6000 BKN011 TX27/0906Z TN24/0920Z TEMPO 0906/0912 SHRA BKN006 FEW030CB OVC040 BECMG 0908/0909 35004MPS BKN015


Runway Data for ZSPD
Data provided by openaviationdata.com

Runway ID Mag Var Hdg Length Elevation Surface ILS Freq ILS Id ILS Slope
16 -5 167° 12467 ft 10 ft Concrete -- -- --
17 -5 167° 13150 ft 10 ft Concrete 110.7 IPD 3
34 -5 347° 12467 ft 10 ft Concrete -- -- --
35 -5 347° 13150 ft 10 ft Concrete 111.9 INN 3

Shanghai Pudong International Airport, China
Use only for reference purposes



Not for navigational purposes.